Weather at Brainerd Lakes Regional Airport

Public forecast

Using degrees Fahrenheit for public forecast. Weather courtesy of forecast.io.

Current aviation weather report (METAR) for Brainerd Lakes Regional Airport

Retrieved 2020/11/25 09:53 UTC (23 minutes ago):

KBRD 250953Z AUTO 00000KT 4SM BR BKN007 OVC026 01/M01 A2989 RMK AO2 CIG 004V009 SLP138 T00061006

Aviation forecast (TAF) for Brainerd Lakes Regional Airport

Retrieved 2020/11/25 06:40 UTC (4 hours ago):

TAF KBRD 250538Z 2506/2606 00000KT 3SM BR OVC005 FM251500 00000KT P6SM OVC008 FM251900 VRB03KT P6SM BKN018